KMDT/MDT METAR and TAF weather

Enter ICAO airport designator
Station Type Date Time Source
KMDT METAR 2022/06/27 08:07 UTC NOAA

KMDT 270807Z 17003KT 10SM BKN013 BKN090 OVC250 23/19 A2993 RMK AO2 T02280194 $


Station Type Date Time Source
KMDT Decoded METAR 2022/06/27 08:07 UTC NOAA

HARRISBURG INTERNATIONAL AIRPORT, PA, United States (KMDT) 40-12N 076-46W 95M
Jun 27, 2022 - 04:07 AM EDT / 2022.06.27 0807 UTC
Wind: from the S (170 degrees) at 3 MPH (3 KT):0
Visibility: 10 mile(s):0
Sky conditions: overcast
Temperature: 73.0 F (22.8 C)
Dew Point: 66.9 F (19.4 C)
Relative Humidity: 81%
Pressure (altimeter): 29.93 in. Hg (1013 hPa)
ob: KMDT 270807Z 17003KT 10SM BKN013 BKN090 OVC250 23/19 A2993 RMK AO2 T02280194
cycle: 8

Station Type Date Time Source
KMDT TAF 2022/06/27 06:39 UTC NOAA

TAF KMDT 270537Z 2706/2806 18005KT 5SM -SHRA BR OVC040
FM270700 17005KT 6SM BR VCSH OVC030
FM271100 26007KT P6SM -SHRA BKN025
FM271300 30008G20KT P6SM SCT050

Example: see airport list